createdAt,value
2022-11-17T00:00:15.343Z,88.16
2022-11-17T00:01:15.115Z,87.74
2022-11-17T00:02:15.238Z,87.64
2022-11-17T00:03:15.133Z,87.43
2022-11-17T00:04:15.096Z,87.02
2022-11-17T00:05:15.065Z,87.06
2022-11-17T00:06:15.084Z,87.47
2022-11-17T00:07:15.353Z,87.68
2022-11-17T00:08:15.045Z,87.57
2022-11-17T00:09:15.112Z,87.88
2022-11-17T00:10:15.029Z,87.95
2022-11-17T00:11:15.007Z,87.88
2022-11-17T00:12:18.042Z,87.88
2022-11-17T00:13:16.005Z,88.09
2022-11-17T00:14:15.080Z,88.30
2022-11-17T00:15:14.997Z,88.26
2022-11-17T00:16:14.956Z,88.09
2022-11-17T00:17:15.030Z,88.09
2022-11-17T00:18:14.937Z,88.20
2022-11-17T00:19:14.928Z,88.20
2022-11-17T00:20:14.983Z,87.88
2022-11-17T00:21:14.908Z,88.09
2022-11-17T00:22:15.008Z,88.40
2022-11-17T00:23:14.900Z,88.51
2022-11-17T00:24:14.868Z,88.40
2022-11-17T00:25:14.848Z,88.71
2022-11-17T00:26:14.880Z,89.13
2022-11-17T00:27:14.830Z,89.13
2022-11-17T00:28:14.850Z,89.29
2022-11-17T00:29:14.830Z,89.81
2022-11-17T00:30:14.820Z,90.44
2022-11-17T00:31:14.856Z,90.84
2022-11-17T00:32:14.789Z,90.64
2022-11-17T00:33:14.783Z,90.44
2022-11-17T00:34:14.771Z,89.50
2022-11-17T00:35:14.766Z,89.40
2022-11-17T00:36:14.737Z,89.46
2022-11-17T00:37:14.772Z,89.19
2022-11-17T00:38:14.733Z,89.15
2022-11-17T00:39:14.718Z,89.09
2022-11-17T00:40:15.041Z,88.78
2022-11-17T00:41:14.723Z,88.94
2022-11-17T00:42:14.673Z,89.04
2022-11-17T00:43:14.695Z,89.25
2022-11-17T00:44:14.655Z,89.36
2022-11-17T00:45:14.671Z,89.36
2022-11-17T00:46:14.631Z,89.25
2022-11-17T00:47:14.638Z,88.78
2022-11-17T00:48:14.639Z,88.84
2022-11-17T00:49:14.635Z,88.78
2022-11-17T00:50:14.594Z,88.84
2022-11-17T00:51:14.574Z,89.04
2022-11-17T00:52:14.583Z,89.15
2022-11-17T00:53:14.563Z,89.67
2022-11-17T00:54:14.564Z,89.56
2022-11-17T00:55:14.577Z,88.84
2022-11-17T00:56:14.535Z,88.84
2022-11-17T00:57:14.575Z,88.74
2022-11-17T00:58:14.503Z,88.84
2022-11-17T00:59:14.484Z,88.74
2022-11-17T01:00:14.508Z,88.84
2022-11-17T01:01:14.521Z,89.15
2022-11-17T01:02:14.467Z,89.04
2022-11-17T01:03:14.500Z,88.74
2022-11-17T01:04:14.447Z,88.32
2022-11-17T01:05:14.429Z,88.22
2022-11-17T01:06:14.452Z,88.43
2022-11-17T01:07:14.437Z,87.81
2022-11-17T01:08:14.424Z,87.49
2022-11-17T01:09:14.395Z,87.70
2022-11-17T01:10:14.378Z,87.70
2022-11-17T01:11:14.355Z,87.54
2022-11-17T01:12:14.446Z,87.95
2022-11-17T01:13:14.326Z,88.16
2022-11-17T01:14:14.336Z,88.57
2022-11-17T01:15:14.318Z,88.74
2022-11-17T01:16:14.318Z,88.43
2022-11-17T01:17:14.306Z,87.91
2022-11-17T01:18:14.339Z,87.70
2022-11-17T01:19:14.288Z,87.60
2022-11-17T01:20:14.303Z,87.60
2022-11-17T01:21:14.249Z,87.60
2022-11-17T01:22:14.292Z,87.91
2022-11-17T01:23:14.242Z,87.60
2022-11-17T01:24:14.242Z,87.70
2022-11-17T01:25:14.232Z,87.39
2022-11-17T01:26:14.199Z,87.49
2022-11-17T01:27:14.210Z,87.95
2022-11-17T01:28:14.197Z,88.26
2022-11-17T01:29:14.234Z,88.57
2022-11-17T01:30:14.196Z,88.57
2022-11-17T01:31:14.180Z,88.57
2022-11-17T01:32:14.178Z,88.36
2022-11-17T01:33:14.143Z,87.85
2022-11-17T01:34:14.158Z,88.06
2022-11-17T01:35:14.111Z,87.95
2022-11-17T01:36:14.093Z,87.54
2022-11-17T01:37:14.091Z,87.54
2022-11-17T01:38:14.132Z,87.33
2022-11-17T01:39:14.074Z,87.37
2022-11-17T01:40:14.077Z,87.57
2022-11-17T01:41:14.077Z,87.57
2022-11-17T01:42:14.063Z,87.47
2022-11-17T01:43:14.998Z,87.99
2022-11-17T01:44:14.017Z,88.20
2022-11-17T01:45:14.020Z,88.24
2022-11-17T01:46:13.985Z,88.65
2022-11-17T01:47:13.998Z,88.65
2022-11-17T01:48:13.995Z,88.86
2022-11-17T01:49:13.983Z,88.96
2022-11-17T01:50:13.952Z,89.79
2022-11-17T01:51:13.922Z,89.28
2022-11-17T01:52:13.933Z,89.17
2022-11-17T01:53:13.914Z,89.17
2022-11-17T01:54:13.893Z,89.07
2022-11-17T01:55:13.904Z,88.96
2022-11-17T01:56:13.878Z,88.92
2022-11-17T01:57:13.898Z,89.13
2022-11-17T01:58:13.922Z,89.75
2022-11-17T01:59:13.857Z,89.75
2022-11-17T02:00:13.855Z,89.34
2022-11-17T02:01:13.912Z,89.44
2022-11-17T02:02:13.816Z,89.34
2022-11-17T02:03:13.867Z,89.44
2022-11-17T02:04:13.809Z,89.13
2022-11-17T02:05:13.786Z,89.23
2022-11-17T02:06:13.787Z,89.23
2022-11-17T02:07:13.845Z,89.44
2022-11-17T02:08:13.777Z,89.65
2022-11-17T02:09:13.753Z,89.65
2022-11-17T02:10:13.760Z,89.03
2022-11-17T02:11:13.735Z,89.13
2022-11-17T02:12:13.735Z,89.13
2022-11-17T02:13:13.758Z,89.13
2022-11-17T02:14:13.688Z,89.34
2022-11-17T02:15:13.679Z,89.54
2022-11-17T02:16:13.715Z,89.75
2022-11-17T02:17:14.603Z,89.86
2022-11-17T02:18:13.682Z,89.75
2022-11-17T02:19:13.641Z,90.06
2022-11-17T02:20:13.640Z,89.75
2022-11-17T02:21:13.641Z,89.54
2022-11-17T02:22:13.611Z,89.54
2022-11-17T02:23:13.641Z,89.65
2022-11-17T02:24:13.624Z,89.44
2022-11-17T02:25:13.608Z,89.34
2022-11-17T02:26:13.580Z,89.44
2022-11-17T02:27:13.559Z,89.23
2022-11-17T02:28:13.537Z,89.44
2022-11-17T02:29:13.558Z,89.23
2022-11-17T02:30:13.519Z,89.13
2022-11-17T02:31:13.494Z,88.92
2022-11-17T02:32:13.492Z,89.23
2022-11-17T02:33:13.494Z,89.54
2022-11-17T02:34:13.502Z,89.34
2022-11-17T02:35:13.462Z,89.65
2022-11-17T02:36:13.465Z,89.65
2022-11-17T02:37:13.445Z,89.65
2022-11-17T02:38:13.434Z,89.34
2022-11-17T02:39:13.463Z,89.34
2022-11-17T02:40:13.433Z,89.34
2022-11-17T02:41:13.391Z,89.44
2022-11-17T02:42:13.401Z,89.54
2022-11-17T02:43:13.375Z,89.03
2022-11-17T02:44:13.369Z,89.13
2022-11-17T02:45:13.464Z,88.71
2022-11-17T02:46:13.356Z,88.71
2022-11-17T02:47:13.343Z,88.82
2022-11-17T02:48:13.346Z,88.71
2022-11-17T02:49:13.314Z,88.92
2022-11-17T02:50:13.315Z,89.13
2022-11-17T02:51:13.315Z,89.23
2022-11-17T02:52:13.283Z,89.44
2022-11-17T02:53:13.280Z,89.13
2022-11-17T02:54:13.285Z,89.44
2022-11-17T02:55:13.282Z,89.19
2022-11-17T02:56:13.234Z,89.44
2022-11-17T02:57:13.266Z,89.50
2022-11-17T02:58:13.217Z,89.09
2022-11-17T02:59:13.307Z,89.40
2022-11-17T03:00:13.257Z,88.57
2022-11-17T03:01:13.271Z,88.40
2022-11-17T03:02:13.191Z,88.71
2022-11-17T03:03:13.174Z,88.82
2022-11-17T03:04:13.186Z,89.03
2022-11-17T03:05:13.156Z,89.23
2022-11-17T03:06:13.173Z,89.23
2022-11-17T03:07:13.197Z,89.03
2022-11-17T03:08:13.124Z,88.92
2022-11-17T03:09:13.096Z,89.13
2022-11-17T03:10:13.204Z,89.13
2022-11-17T03:11:13.076Z,89.13
2022-11-17T03:12:13.078Z,89.23
2022-11-17T03:13:13.059Z,89.61
2022-11-17T03:14:13.039Z,89.29
2022-11-17T03:15:14.068Z,89.19
2022-11-17T03:16:13.041Z,89.09
2022-11-17T03:17:12.999Z,88.88
2022-11-17T03:18:13.070Z,88.88
2022-11-17T03:19:13.014Z,89.09
2022-11-17T03:20:13.001Z,89.40
2022-11-17T03:21:13.029Z,89.19
2022-11-17T03:22:13.014Z,88.78
2022-11-17T03:23:12.961Z,88.88
2022-11-17T03:24:12.960Z,88.67
2022-11-17T03:25:12.925Z,88.67
2022-11-17T03:26:12.952Z,88.67
2022-11-17T03:27:12.912Z,89.09
2022-11-17T03:28:12.913Z,89.29
2022-11-17T03:29:12.869Z,89.29
2022-11-17T03:30:12.860Z,89.81
2022-11-17T03:31:12.900Z,90.12
2022-11-17T03:32:12.844Z,89.61
2022-11-17T03:33:12.852Z,89.81
2022-11-17T03:34:12.855Z,90.23
2022-11-17T03:35:12.841Z,90.33
2022-11-17T03:36:12.867Z,89.92
2022-11-17T03:37:12.836Z,89.40
2022-11-17T03:38:12.782Z,89.29
2022-11-17T03:39:12.794Z,89.61
2022-11-17T03:40:12.781Z,89.61
2022-11-17T03:41:12.795Z,89.40
2022-11-17T03:42:12.754Z,89.61
2022-11-17T03:43:12.756Z,89.44
2022-11-17T03:44:12.724Z,89.34
2022-11-17T03:45:12.702Z,89.44
2022-11-17T03:46:12.719Z,89.75
2022-11-17T03:47:12.733Z,90.26
2022-11-17T03:48:12.673Z,90.37
2022-11-17T03:49:12.728Z,90.26
2022-11-17T03:50:12.664Z,90.06
2022-11-17T03:51:12.648Z,90.58
2022-11-17T03:52:12.665Z,90.78
2022-11-17T03:53:12.635Z,91.05
2022-11-17T03:54:12.615Z,91.05
2022-11-17T03:55:12.606Z,90.95
2022-11-17T03:56:12.792Z,90.64
2022-11-17T03:57:12.632Z,90.95
2022-11-17T03:58:12.566Z,91.05
2022-11-17T03:59:12.576Z,90.84
2022-11-17T04:00:12.535Z,90.53
2022-11-17T04:01:12.544Z,90.53
2022-11-17T04:02:12.550Z,90.44
2022-11-17T04:03:12.554Z,90.44
2022-11-17T04:04:12.514Z,90.33
2022-11-17T04:05:12.530Z,90.74
2022-11-17T04:06:12.482Z,89.81
2022-11-17T04:07:12.500Z,89.92
2022-11-17T04:08:12.558Z,90.44
2022-11-17T04:09:12.447Z,90.84
2022-11-17T04:10:12.430Z,90.95
2022-11-17T04:11:12.439Z,90.74
2022-11-17T04:12:12.416Z,91.05
2022-11-17T04:13:12.427Z,90.84
2022-11-17T04:14:12.419Z,90.95
2022-11-17T04:15:12.379Z,90.44
2022-11-17T04:16:12.365Z,90.12
2022-11-17T04:17:12.377Z,89.81
2022-11-17T04:18:12.400Z,89.50
2022-11-17T04:19:12.343Z,89.81
2022-11-17T04:20:12.343Z,89.71
2022-11-17T04:21:12.310Z,89.34
2022-11-17T04:22:12.319Z,89.13
2022-11-17T04:23:12.350Z,89.13
2022-11-17T04:24:12.308Z,89.44
2022-11-17T04:25:12.269Z,89.34
2022-11-17T04:26:12.287Z,89.13
2022-11-17T04:27:12.263Z,89.34
2022-11-17T04:28:12.248Z,88.92
2022-11-17T04:29:12.235Z,89.13
2022-11-17T04:30:12.243Z,89.44
2022-11-17T04:31:12.202Z,89.34
2022-11-17T04:32:12.215Z,89.44
2022-11-17T04:33:12.191Z,89.65
2022-11-17T04:34:12.180Z,89.03
2022-11-17T04:35:12.190Z,88.92
2022-11-17T04:36:12.177Z,89.23
2022-11-17T04:37:12.152Z,89.23
2022-11-17T04:38:12.158Z,89.23
2022-11-17T04:39:12.116Z,89.03
2022-11-17T04:40:12.118Z,89.28
2022-11-17T04:41:12.114Z,89.65
2022-11-17T04:42:12.132Z,89.54
2022-11-17T04:43:12.072Z,89.86
2022-11-17T04:44:12.097Z,89.75
2022-11-17T04:45:12.076Z,89.86
2022-11-17T04:46:12.066Z,90.10
2022-11-17T04:47:12.049Z,90.20
2022-11-17T04:48:12.072Z,90.20
2022-11-17T04:49:12.013Z,90.10
2022-11-17T04:50:12.007Z,90.10
2022-11-17T04:51:11.994Z,90.10
2022-11-17T04:52:11.986Z,90.10
2022-11-17T04:53:11.995Z,90.16
2022-11-17T04:54:12.004Z,90.06
2022-11-17T04:55:11.945Z,90.37
2022-11-17T04:56:11.951Z,90.26
2022-11-17T04:57:11.946Z,90.16
2022-11-17T04:58:11.934Z,90.06
2022-11-17T04:59:11.908Z,90.26
2022-11-17T05:00:11.953Z,90.16
2022-11-17T05:01:11.900Z,90.16
2022-11-17T05:02:11.914Z,90.16
2022-11-17T05:03:11.882Z,89.86
2022-11-17T05:04:11.856Z,90.16
2022-11-17T05:05:11.845Z,90.16
2022-11-17T05:06:11.901Z,89.96
2022-11-17T05:07:11.856Z,90.16
2022-11-17T05:08:11.830Z,90.47
2022-11-17T05:09:11.807Z,90.47
2022-11-17T05:10:11.798Z,90.47
2022-11-17T05:11:11.823Z,89.96
2022-11-17T05:12:11.799Z,90.16
2022-11-17T05:13:11.770Z,90.06
2022-11-17T05:14:11.842Z,90.16
2022-11-17T05:15:11.751Z,89.96
2022-11-17T05:16:11.730Z,90.06
2022-11-17T05:17:12.093Z,90.16
2022-11-17T05:18:11.748Z,90.26
2022-11-17T05:19:11.698Z,90.26
2022-11-17T05:20:11.690Z,90.16
2022-11-17T05:21:11.660Z,89.96
2022-11-17T05:22:11.672Z,90.37
2022-11-17T05:23:11.663Z,90.26
2022-11-17T05:24:11.663Z,89.86
2022-11-17T05:25:11.667Z,90.16
2022-11-17T05:26:11.620Z,90.06
2022-11-17T05:27:11.663Z,89.75
2022-11-17T05:28:11.656Z,89.86
2022-11-17T05:29:11.582Z,90.06
2022-11-17T05:30:11.563Z,89.86
2022-11-17T05:31:11.578Z,90.16
2022-11-17T05:32:11.554Z,90.37
2022-11-17T05:33:11.540Z,90.68
2022-11-17T05:34:11.574Z,90.58
2022-11-17T05:35:11.521Z,90.58
2022-11-17T05:36:11.516Z,90.37
2022-11-17T05:37:11.516Z,90.58
2022-11-17T05:38:11.486Z,90.26
2022-11-17T05:39:11.472Z,90.58
2022-11-17T05:40:11.526Z,90.68
2022-11-17T05:41:11.456Z,90.58
2022-11-17T05:42:11.470Z,90.37
2022-11-17T05:43:11.434Z,90.47
2022-11-17T05:44:11.424Z,90.37
2022-11-17T05:45:11.451Z,90.37
2022-11-17T05:46:11.424Z,90.20
2022-11-17T05:47:11.705Z,90.41
2022-11-17T05:48:11.413Z,90.52
2022-11-17T05:49:11.402Z,90.72
2022-11-17T05:50:11.379Z,90.72
2022-11-17T05:51:11.407Z,90.72
2022-11-17T05:52:11.387Z,91.08
2022-11-17T05:53:11.385Z,90.87
2022-11-17T05:54:12.390Z,90.56
2022-11-17T05:55:11.352Z,90.45
2022-11-17T05:56:11.287Z,90.35
2022-11-17T05:57:11.291Z,90.56
2022-11-17T05:58:11.287Z,90.56
2022-11-17T05:59:11.279Z,90.25
2022-11-17T06:00:11.280Z,90.04
2022-11-17T06:01:11.250Z,89.52
2022-11-17T06:02:11.268Z,89.83
2022-11-17T06:03:11.238Z,89.73
2022-11-17T06:04:11.246Z,89.62
2022-11-17T06:05:15.619Z,89.42
2022-11-17T06:06:12.244Z,89.42
2022-11-17T06:07:11.243Z,89.52
2022-11-17T06:08:11.170Z,89.42
2022-11-17T06:09:11.153Z,89.73
2022-11-17T06:10:11.129Z,89.94
2022-11-17T06:11:11.111Z,90.04
2022-11-17T06:12:11.151Z,89.94
2022-11-17T06:13:11.119Z,89.94
2022-11-17T06:14:11.100Z,90.04
2022-11-17T06:15:11.079Z,89.62
2022-11-17T06:16:11.079Z,89.83
2022-11-17T06:17:11.061Z,89.83
2022-11-17T06:18:11.074Z,89.87
2022-11-17T06:19:11.042Z,90.08
2022-11-17T06:20:11.032Z,89.87
2022-11-17T06:21:13.892Z,89.77
2022-11-17T06:22:12.984Z,89.98
2022-11-17T06:23:11.009Z,90.19
2022-11-17T06:24:11.039Z,89.87
2022-11-17T06:25:10.983Z,89.98
2022-11-17T06:26:10.973Z,90.08
2022-11-17T06:27:10.948Z,90.50
2022-11-17T06:28:10.953Z,90.70
2022-11-17T06:29:10.936Z,90.50
2022-11-17T06:30:10.953Z,90.91
2022-11-17T06:31:10.923Z,90.91
2022-11-17T06:32:10.906Z,90.81
2022-11-17T06:33:10.896Z,90.60
2022-11-17T06:34:10.884Z,89.77
2022-11-17T06:35:10.892Z,89.77
2022-11-17T06:36:10.865Z,89.67
2022-11-17T06:37:10.843Z,89.87
2022-11-17T06:38:10.847Z,89.67
2022-11-17T06:39:10.827Z,89.36
2022-11-17T06:40:10.867Z,89.36
2022-11-17T06:41:12.146Z,89.25
2022-11-17T06:42:10.797Z,89.19
2022-11-17T06:43:10.797Z,89.61
2022-11-17T06:44:10.787Z,89.61
2022-11-17T06:45:10.778Z,89.40
2022-11-17T06:46:10.797Z,89.61
2022-11-17T06:47:10.747Z,89.50
2022-11-17T06:48:10.738Z,89.61
2022-11-17T06:49:10.725Z,89.61
2022-11-17T06:50:10.729Z,89.61
2022-11-17T06:51:10.696Z,89.71
2022-11-17T06:52:10.742Z,89.71
2022-11-17T06:53:10.677Z,89.92
2022-11-17T06:54:10.690Z,89.81
2022-11-17T06:55:10.659Z,89.81
2022-11-17T06:56:10.661Z,89.50
2022-11-17T06:57:10.632Z,89.81
2022-11-17T06:58:10.680Z,89.50
2022-11-17T06:59:10.619Z,89.40
2022-11-17T07:00:10.607Z,89.19
2022-11-17T07:01:10.661Z,89.40
2022-11-17T07:02:10.591Z,89.50
2022-11-17T07:03:10.600Z,89.92
2022-11-17T07:04:10.550Z,89.92
2022-11-17T07:05:10.545Z,89.61
2022-11-17T07:06:10.567Z,89.71
2022-11-17T07:07:10.572Z,89.61
2022-11-17T07:08:10.530Z,89.29
2022-11-17T07:09:10.533Z,89.19
2022-11-17T07:10:10.492Z,89.92
2022-11-17T07:11:10.516Z,89.61
2022-11-17T07:12:10.491Z,88.98
2022-11-17T07:13:10.471Z,89.29
2022-11-17T07:14:10.455Z,89.81
2022-11-17T07:15:10.493Z,89.61
2022-11-17T07:16:10.444Z,89.61
2022-11-17T07:17:10.524Z,89.81
2022-11-17T07:18:10.431Z,89.71
2022-11-17T07:19:10.404Z,90.02
2022-11-17T07:20:10.384Z,90.02
2022-11-17T07:21:10.465Z,90.12
2022-11-17T07:22:10.413Z,90.02
2022-11-17T07:23:10.354Z,90.12
2022-11-17T07:24:10.376Z,90.02
2022-11-17T07:25:10.375Z,90.12
2022-11-17T07:26:10.364Z,90.02
2022-11-17T07:27:10.358Z,90.12
2022-11-17T07:28:10.375Z,90.12
2022-11-17T07:29:10.298Z,89.81
2022-11-17T07:30:10.382Z,89.71
2022-11-17T07:31:10.354Z,89.19
2022-11-17T07:32:10.295Z,88.98
2022-11-17T07:33:10.255Z,88.98
2022-11-17T07:34:10.266Z,88.98
2022-11-17T07:35:10.227Z,89.50
2022-11-17T07:36:10.245Z,89.40
2022-11-17T07:37:10.258Z,89.29
2022-11-17T07:38:10.207Z,89.19
2022-11-17T07:39:10.186Z,88.98
2022-11-17T07:40:10.177Z,89.09
2022-11-17T07:41:10.188Z,89.61
2022-11-17T07:42:10.147Z,89.61
2022-11-17T07:43:10.147Z,89.50
2022-11-17T07:44:10.162Z,89.61
2022-11-17T07:45:10.140Z,89.40
2022-11-17T07:46:10.161Z,89.61
2022-11-17T07:47:10.117Z,89.50
2022-11-17T07:48:10.077Z,89.29
2022-11-17T07:49:10.066Z,88.98
2022-11-17T07:50:10.069Z,88.98
2022-11-17T07:51:10.067Z,89.29
2022-11-17T07:52:10.048Z,89.29
2022-11-17T07:53:10.071Z,89.61
2022-11-17T07:54:10.020Z,89.40
2022-11-17T07:55:10.038Z,89.81
2022-11-17T07:56:10.024Z,89.71
2022-11-17T07:57:09.992Z,89.56
2022-11-17T07:58:10.073Z,89.29
2022-11-17T07:59:10.045Z,89.29
2022-11-17T08:00:09.960Z,89.50
2022-11-17T08:01:10.050Z,89.61
2022-11-17T08:02:09.953Z,89.19
2022-11-17T08:03:09.975Z,89.19
2022-11-17T08:04:10.023Z,89.56
2022-11-17T08:05:09.941Z,89.15
2022-11-17T08:06:09.901Z,89.15
2022-11-17T08:07:09.982Z,88.94
2022-11-17T08:08:09.884Z,89.15
2022-11-17T08:09:09.892Z,89.36
2022-11-17T08:10:10.011Z,89.15
2022-11-17T08:11:09.850Z,88.94
2022-11-17T08:12:09.848Z,89.04
2022-11-17T08:13:09.814Z,88.63
2022-11-17T08:14:09.961Z,88.53
2022-11-17T08:15:09.795Z,88.42
2022-11-17T08:16:09.813Z,88.21
2022-11-17T08:17:09.837Z,88.73
2022-11-17T08:18:09.824Z,88.84
2022-11-17T08:19:10.818Z,89.25
2022-11-17T08:20:09.781Z,88.63
2022-11-17T08:21:09.723Z,88.59
2022-11-17T08:22:09.729Z,88.21
2022-11-17T08:23:09.722Z,88.21
2022-11-17T08:24:09.722Z,88.11
2022-11-17T08:25:09.675Z,88.53
2022-11-17T08:26:09.750Z,88.94
2022-11-17T08:27:09.672Z,88.90
2022-11-17T08:28:09.646Z,88.90
2022-11-17T08:29:09.673Z,88.90
2022-11-17T08:30:09.657Z,88.90
2022-11-17T08:31:09.638Z,88.79
2022-11-17T08:32:24.440Z,89.00
2022-11-17T08:33:09.660Z,89.00
2022-11-17T08:34:09.640Z,88.39
2022-11-17T08:35:09.643Z,88.59
2022-11-17T08:36:10.577Z,88.18
2022-11-17T08:37:09.628Z,88.48
2022-11-17T08:38:09.566Z,88.69
2022-11-17T08:39:09.556Z,88.79
2022-11-17T08:40:09.522Z,89.31
2022-11-17T08:41:09.551Z,89.21
2022-11-17T08:42:09.529Z,89.11
2022-11-17T08:43:09.518Z,89.11
2022-11-17T08:44:09.491Z,88.79
2022-11-17T08:45:09.706Z,88.59
2022-11-17T08:46:09.643Z,88.28
2022-11-17T08:47:09.458Z,88.48
2022-11-17T08:48:09.480Z,88.90
2022-11-17T08:49:09.438Z,89.42
2022-11-17T08:50:09.443Z,89.69
2022-11-17T08:51:09.410Z,89.58
2022-11-17T08:52:09.439Z,89.17
2022-11-17T08:53:09.388Z,88.55
2022-11-17T08:54:09.371Z,87.72
2022-11-17T08:55:09.434Z,87.82
2022-11-17T08:56:09.397Z,88.07
2022-11-17T08:57:09.460Z,88.18
2022-11-17T08:58:09.357Z,87.87
2022-11-17T08:59:09.350Z,88.07
2022-11-17T09:00:09.320Z,87.97
2022-11-17T09:01:09.526Z,87.87
2022-11-17T09:02:09.322Z,87.97
2022-11-17T09:03:09.340Z,88.07
2022-11-17T09:04:09.290Z,87.55
2022-11-17T09:05:09.266Z,87.76
2022-11-17T09:06:09.252Z,88.18
2022-11-17T09:07:09.316Z,88.59
2022-11-17T09:08:43.247Z,89.42
2022-11-17T09:09:10.255Z,89.42
2022-11-17T09:10:09.217Z,88.79
2022-11-17T09:11:09.208Z,88.59
2022-11-17T09:12:09.206Z,88.69
2022-11-17T09:13:09.174Z,88.07
2022-11-17T09:14:09.204Z,88.07
2022-11-17T09:15:09.168Z,88.39
2022-11-17T09:16:09.134Z,88.39
2022-11-17T09:17:09.142Z,88.39
2022-11-17T09:18:09.123Z,88.55
2022-11-17T09:19:09.140Z,88.03
2022-11-17T09:20:09.114Z,88.55
2022-11-17T09:21:09.093Z,89.07
2022-11-17T09:22:09.073Z,88.76
2022-11-17T09:23:09.093Z,88.76
2022-11-17T09:24:09.064Z,88.13
2022-11-17T09:25:13.317Z,88.13
2022-11-17T09:26:09.042Z,87.93
2022-11-17T09:27:09.039Z,88.03
2022-11-17T09:28:09.027Z,87.62
2022-11-17T09:29:09.076Z,87.93
2022-11-17T09:30:08.987Z,88.24
2022-11-17T09:31:09.057Z,88.13
2022-11-17T09:32:09.015Z,87.93
2022-11-17T09:33:08.996Z,87.93
2022-11-17T09:34:09.004Z,87.10
2022-11-17T09:35:08.955Z,87.30
2022-11-17T09:36:08.976Z,87.51
2022-11-17T09:37:10.037Z,87.10
2022-11-17T09:38:08.897Z,87.51
2022-11-17T09:39:08.927Z,87.72
2022-11-17T09:40:08.906Z,88.03
2022-11-17T09:41:08.908Z,88.45
2022-11-17T09:42:08.948Z,88.96
2022-11-17T09:43:08.880Z,88.76
2022-11-17T09:44:08.838Z,88.20
2022-11-17T09:45:08.857Z,87.62
2022-11-17T09:46:08.813Z,87.41
2022-11-17T09:47:08.838Z,87.62
2022-11-17T09:48:38.855Z,87.47
2022-11-17T09:49:09.788Z,87.27
2022-11-17T09:50:08.784Z,87.06
2022-11-17T09:51:08.848Z,87.27
2022-11-17T09:52:08.890Z,86.96
2022-11-17T09:53:08.751Z,87.47
2022-11-17T09:54:08.772Z,86.85
2022-11-17T09:55:08.740Z,86.68
2022-11-17T09:56:08.716Z,86.17
2022-11-17T09:57:08.720Z,85.96
2022-11-17T09:58:08.721Z,86.37
2022-11-17T09:59:08.734Z,86.27
2022-11-17T10:00:08.671Z,86.79
2022-11-17T10:01:08.673Z,86.79
2022-11-17T10:02:08.677Z,86.47
2022-11-17T10:03:08.717Z,86.37
2022-11-17T10:04:08.670Z,86.79
2022-11-17T10:05:08.612Z,87.20
2022-11-17T10:06:08.633Z,86.68
2022-11-17T10:07:08.686Z,86.27
2022-11-17T10:08:08.642Z,86.17
2022-11-17T10:09:08.633Z,86.27
2022-11-17T10:10:08.593Z,86.89
2022-11-17T10:11:08.573Z,87.10
2022-11-17T10:12:08.553Z,87.10
2022-11-17T10:13:08.531Z,86.79
2022-11-17T10:14:08.544Z,86.89
2022-11-17T10:15:08.521Z,87.51
2022-11-17T10:16:08.507Z,86.99
2022-11-17T10:17:08.516Z,86.44
2022-11-17T10:18:08.615Z,86.13
2022-11-17T10:19:08.476Z,85.65
2022-11-17T10:20:08.498Z,85.65
2022-11-17T10:21:08.650Z,86.47
2022-11-17T10:22:08.575Z,86.58
2022-11-17T10:23:08.442Z,86.07
2022-11-17T10:24:08.437Z,86.27
2022-11-17T10:25:08.565Z,86.17
2022-11-17T10:26:08.397Z,86.07
2022-11-17T10:27:08.479Z,86.07
2022-11-17T10:28:08.386Z,86.58
2022-11-17T10:29:09.225Z,86.58
2022-11-17T10:30:08.407Z,86.58
2022-11-17T10:31:08.349Z,86.58
2022-11-17T10:32:08.337Z,86.37
2022-11-17T10:33:08.361Z,86.47
2022-11-17T10:34:08.309Z,86.75
2022-11-17T10:35:08.308Z,86.23
2022-11-17T10:36:08.657Z,86.23
2022-11-17T10:37:08.294Z,85.61
2022-11-17T10:38:08.297Z,84.68
2022-11-17T10:39:08.598Z,84.72
2022-11-17T10:40:09.248Z,84.82
2022-11-17T10:41:08.218Z,84.92
2022-11-17T10:42:08.265Z,85.34
2022-11-17T10:43:08.231Z,85.34
2022-11-17T10:44:08.610Z,85.24
2022-11-17T10:45:08.252Z,85.75
2022-11-17T10:46:08.178Z,86.07
2022-11-17T10:47:08.332Z,86.58
2022-11-17T10:48:09.162Z,86.54
2022-11-17T10:49:08.227Z,86.75
2022-11-17T10:50:08.140Z,85.50
2022-11-17T10:51:08.175Z,85.19
2022-11-17T10:52:08.171Z,85.30
2022-11-17T10:53:12.597Z,85.82
2022-11-17T10:54:08.161Z,85.30
2022-11-17T10:55:08.122Z,84.99
2022-11-17T10:56:08.113Z,85.40
2022-11-17T10:57:08.162Z,85.50
2022-11-17T10:58:08.073Z,85.82
2022-11-17T10:59:08.079Z,86.13
2022-11-17T11:00:08.034Z,85.40
2022-11-17T11:01:08.126Z,85.50
2022-11-17T11:02:08.034Z,85.19
2022-11-17T11:03:08.060Z,85.30
2022-11-17T11:04:08.144Z,85.82
2022-11-17T11:05:07.982Z,85.78
2022-11-17T11:06:11.872Z,85.88
2022-11-17T11:07:09.021Z,86.09
2022-11-17T11:08:08.055Z,85.57
2022-11-17T11:09:08.034Z,84.74
2022-11-17T11:10:07.984Z,84.74
2022-11-17T11:11:07.915Z,85.16
2022-11-17T11:12:07.923Z,85.36
2022-11-17T11:13:07.988Z,85.68
2022-11-17T11:14:07.920Z,85.36
2022-11-17T11:15:07.924Z,85.47
2022-11-17T11:16:07.895Z,85.32
2022-11-17T11:17:07.853Z,84.60
2022-11-17T11:18:07.871Z,84.95
2022-11-17T11:19:08.458Z,85.63
2022-11-17T11:20:07.822Z,85.53
2022-11-17T11:21:07.984Z,85.42
2022-11-17T11:22:07.800Z,85.22
2022-11-17T11:23:07.783Z,84.08
2022-11-17T11:24:07.906Z,84.05
2022-11-17T11:25:07.817Z,84.08
2022-11-17T11:26:07.783Z,84.45
2022-11-17T11:27:08.573Z,84.15
2022-11-17T11:28:07.724Z,83.67
2022-11-17T11:29:08.013Z,83.56
2022-11-17T11:30:07.854Z,83.56
2022-11-17T11:31:07.851Z,83.15
2022-11-17T11:32:07.726Z,83.67
2022-11-17T11:33:08.200Z,83.46
2022-11-17T11:34:07.702Z,83.36
2022-11-17T11:35:07.708Z,83.05
2022-11-17T11:36:07.692Z,83.46
2022-11-17T11:37:07.752Z,83.71
2022-11-17T11:38:07.680Z,83.50
2022-11-17T11:39:07.978Z,83.91
2022-11-17T11:40:07.639Z,84.64
2022-11-17T11:41:07.597Z,84.53
2022-11-17T11:42:08.328Z,84.22
2022-11-17T11:43:07.592Z,84.22
2022-11-17T11:44:07.552Z,84.33
2022-11-17T11:45:07.582Z,84.81
2022-11-17T11:46:07.572Z,84.70
2022-11-17T11:47:07.544Z,84.19
2022-11-17T11:48:07.571Z,83.87
2022-11-17T11:49:07.666Z,83.71
2022-11-17T11:50:07.532Z,83.40
2022-11-17T11:51:07.482Z,83.50
2022-11-17T11:52:07.465Z,83.61
2022-11-17T11:53:07.547Z,83.61
2022-11-17T11:54:07.577Z,83.61
2022-11-17T11:55:07.456Z,83.91
2022-11-17T11:56:07.536Z,83.81
2022-11-17T11:57:07.441Z,83.71
2022-11-17T11:58:07.445Z,83.75
2022-11-17T11:59:07.415Z,83.85
2022-11-17T12:00:07.397Z,84.06
2022-11-17T12:01:07.395Z,84.06
2022-11-17T12:02:07.465Z,84.27
2022-11-17T12:03:07.513Z,84.47
2022-11-17T12:04:07.413Z,84.37
2022-11-17T12:05:07.397Z,83.95
2022-11-17T12:06:07.801Z,83.95
2022-11-17T12:07:07.451Z,83.33
2022-11-17T12:08:10.548Z,83.99
2022-11-17T12:09:07.394Z,83.95
2022-11-17T12:10:07.300Z,83.89
2022-11-17T12:11:07.283Z,84.20
2022-11-17T12:12:07.330Z,84.72
2022-11-17T12:13:07.242Z,85.13
2022-11-17T12:14:07.323Z,85.19
2022-11-17T12:15:07.247Z,84.88
2022-11-17T12:16:07.216Z,84.68
2022-11-17T12:17:07.291Z,84.68
2022-11-17T12:18:07.204Z,84.47
2022-11-17T12:19:07.262Z,84.58
2022-11-17T12:20:10.845Z,84.78
2022-11-17T12:21:07.198Z,84.68
2022-11-17T12:22:07.230Z,85.30
2022-11-17T12:23:07.256Z,84.16
2022-11-17T12:24:07.137Z,83.33
2022-11-17T12:25:07.116Z,83.23
2022-11-17T12:26:07.198Z,83.54
2022-11-17T12:27:07.110Z,83.64
2022-11-17T12:28:07.189Z,83.85
2022-11-17T12:29:07.128Z,83.64
2022-11-17T12:30:07.045Z,83.23
2022-11-17T12:31:10.351Z,83.33
2022-11-17T12:32:07.076Z,83.68
2022-11-17T12:33:07.251Z,83.78
2022-11-17T12:34:07.027Z,83.68
2022-11-17T12:35:07.027Z,83.68
2022-11-17T12:36:07.039Z,84.09
2022-11-17T12:37:07.000Z,83.89
2022-11-17T12:38:07.051Z,83.75
2022-11-17T12:39:07.065Z,84.06
2022-11-17T12:40:07.024Z,84.47
2022-11-17T12:41:06.976Z,84.27
2022-11-17T12:42:06.968Z,84.68
2022-11-17T12:43:06.934Z,84.27
2022-11-17T12:44:06.951Z,84.06
2022-11-17T12:45:06.900Z,84.47
2022-11-17T12:46:06.891Z,83.95
2022-11-17T12:47:06.879Z,84.27
2022-11-17T12:48:32.378Z,84.16
2022-11-17T12:49:07.955Z,84.37
2022-11-17T12:50:06.947Z,84.78
2022-11-17T12:51:06.862Z,84.58
2022-11-17T12:52:06.822Z,85.19